Time;durP1;ratioP1;P1;durP2;ratioP2;P2;SDS_P1;SDS_P2;PMS_P1;PMS_P2;Temp;Humidity;BMP_temperature;BMP_pressure;BME280_temperature;BME280_humidity;BME280_pressure;Samples;Min_cycle;Max_cycle;Signal;HPM_P1;HPM_P2
2022/05/27 04:05:27;;;;;;;1.77;1.10;;;;;;;17.69;66.91;100785.81;5948079;27;20150;-84
2022/05/27 04:08:30;;;;;;;1.17;1.08;;;;;;;17.89;66.40;100784.94;5361723;33;33498;-85
2022/05/27 04:11:32;;;;;;;1.55;1.45;;;;;;;17.96;65.85;100779.47;5361697;33;33018;-87
2022/05/27 04:14:35;;;;;;;2.00;1.17;;;;;;;18.03;65.62;100786.56;5361452;33;33977;-86
2022/05/27 04:17:40;;;;;;;1.98;1.30;;;;;;;18.07;65.03;100778.78;5361739;33;33641;-87
2022/05/27 04:20:43;;;;;;;1.35;1.15;;;;;;;18.12;65.35;100787.16;5361495;33;33683;-84
2022/05/27 04:23:46;;;;;;;1.23;1.23;;;;;;;18.20;64.82;100788.78;5361377;33;33676;-84
2022/05/27 04:26:49;;;;;;;1.25;1.20;;;;;;;18.35;64.44;100783.88;5361769;33;33681;-87
2022/05/27 04:29:52;;;;;;;1.27;1.17;;;;;;;18.51;63.43;100788.78;5362710;33;34358;-87
2022/05/27 04:32:55;;;;;;;1.65;1.30;;;;;;;18.64;62.51;100784.31;5365151;33;33188;-86
2022/05/27 04:36:01;;;;;;;1.42;1.33;;;;;;;18.77;62.05;100778.78;5361443;33;33971;-87
2022/05/27 04:39:04;;;;;;;1.30;1.20;;;;;;;18.78;61.85;100775.84;5361349;33;34255;-87
2022/05/27 04:42:07;;;;;;;1.12;1.05;;;;;;;18.84;63.05;100774.12;5361555;33;34798;-87
2022/05/27 04:45:10;;;;;;;1.30;1.20;;;;;;;18.92;60.67;100778.44;5361665;33;33477;-86
2022/05/27 04:48:13;;;;;;;1.60;1.50;;;;;;;19.02;60.71;100778.78;5361732;33;34385;-87
2022/05/27 04:51:17;;;;;;;1.08;1.00;;;;;;;19.13;59.75;100774.47;5361519;33;33524;-86
2022/05/27 04:54:19;;;;;;;1.95;1.17;;;;;;;19.28;59.58;100779.59;5361400;33;32995;-84
2022/05/27 04:57:26;;;;;;;1.92;1.17;;;;;;;19.37;58.91;100778.25;5361440;33;34424;-86
2022/05/27 05:00:33;;;;;;;0.95;0.95;;;;;;;19.25;58.04;100776.25;5361319;33;34217;-86
2022/05/27 05:03:36;;;;;;;0.90;0.90;;;;;;;19.25;58.34;100770.78;5350627;33;32049;-84
2022/05/27 05:06:40;;;;;;;1.10;1.10;;;;;;;19.21;58.74;100772.28;5366484;33;33444;-83
2022/05/27 05:09:42;;;;;;;1.20;1.10;;;;;;;19.34;58.54;100767.78;5369629;33;33355;-86
2022/05/27 05:12:45;;;;;;;0.95;0.90;;;;;;;19.55;57.02;100758.31;5371138;33;33437;-86
2022/05/27 05:15:48;;;;;;;1.58;1.10;;;;;;;19.76;57.09;100776.16;5379225;33;34288;-86
2022/05/27 05:18:51;;;;;;;1.23;1.10;;;;;;;19.89;55.90;100776.81;5395990;33;34941;-84
2022/05/27 05:21:54;;;;;;;1.42;1.33;;;;;;;20.05;54.88;100778.09;5389464;33;33695;-86
2022/05/27 05:24:57;;;;;;;0.88;0.88;;;;;;;20.21;53.60;100786.69;5378498;33;33774;-85
2022/05/27 05:28:01;;;;;;;1.35;0.93;;;;;;;20.23;53.34;100777.19;5377146;33;34980;-88
2022/05/27 05:31:13;;;;;;;2.10;1.10;;;;;;;20.26;52.79;100778.66;5371461;33;34375;-91
2022/05/27 05:34:16;;;;;;;1.05;0.90;;;;;;;20.65;51.23;100774.53;5360030;33;34212;-87
2022/05/27 05:37:18;;;;;;;0.62;0.62;;;;;;;21.04;49.84;100775.75;5360922;33;34227;-87
2022/05/27 05:40:21;;;;;;;0.73;0.73;;;;;;;21.36;49.83;100777.31;5360671;33;33518;-84
2022/05/27 05:43:24;;;;;;;0.73;0.73;;;;;;;21.37;48.44;100776.25;5358905;33;33464;-84
2022/05/27 05:46:33;;;;;;;;;;;;;;;21.00;47.90;100774.56;5361382;33;33407;-86
2022/05/27 05:49:37;;;;;;;0.98;0.95;;;;;;;20.61;49.03;100776.88;5360472;33;33357;-84
2022/05/27 05:52:40;;;;;;;1.12;1.02;;;;;;;20.52;50.72;100771.94;5360831;33;34101;-84
2022/05/27 05:55:43;;;;;;;1.08;1.08;;;;;;;20.61;50.12;100768.66;5360701;33;34543;-85
2022/05/27 05:58:49;;;;;;;0.80;0.80;;;;;;;20.84;49.14;100770.59;5354977;33;33700;-85
2022/05/27 06:01:52;;;;;;;1.45;0.80;;;;;;;20.93;48.42;100770.28;5358275;33;33894;-84
2022/05/27 06:04:56;;;;;;;0.60;0.60;;;;;;;21.09;48.55;100769.56;5359691;33;33621;-84
2022/05/27 06:08:00;;;;;;;0.68;0.68;;;;;;;21.19;48.43;100772.53;5361113;33;33440;-84
2022/05/27 06:11:07;;;;;;;0.77;0.60;;;;;;;21.20;47.75;100768.72;5360819;33;33158;-84
2022/05/27 06:14:09;;;;;;;0.62;0.60;;;;;;;21.24;46.76;100777.31;5360083;33;33103;-85
2022/05/27 06:17:12;;;;;;;2.22;1.00;;;;;;;21.33;46.22;100775.03;5360388;33;33394;-84
2022/05/27 06:20:15;;;;;;;3.40;0.95;;;;;;;21.32;46.68;100778.84;5359115;33;34281;-85
2022/05/27 06:23:18;;;;;;;0.95;0.85;;;;;;;21.45;47.53;100775.91;5360133;33;33753;-86
2022/05/27 06:26:21;;;;;;;0.60;0.60;;;;;;;21.42;46.40;100777.19;5365214;33;33081;-84
2022/05/27 06:36:01;;;;;;;0.73;0.73;;;;;;;21.92;45.55;100757.41;5358538;33;33304;-84
2022/05/27 06:39:05;;;;;;;0.50;0.50;;;;;;;22.07;44.86;100756.88;5360687;33;33512;-85
2022/05/27 06:42:10;;;;;;;0.40;0.40;;;;;;;22.36;44.73;100748.69;5360672;33;32990;-84
2022/05/27 06:45:34;;;;;;;1.27;0.90;;;;;;;22.30;44.36;100745.00;5359421;33;35463;-84
2022/05/27 06:48:37;;;;;;;0.52;0.52;;;;;;;22.35;43.45;100747.03;5346787;33;32174;-84
2022/05/27 06:51:40;;;;;;;0.57;0.57;;;;;;;22.51;44.21;100753.59;5370307;33;34645;-84
2022/05/27 06:54:43;;;;;;;0.73;0.52;;;;;;;22.51;43.87;100746.19;5347763;33;33820;-88
2022/05/27 06:57:46;;;;;;;0.50;0.50;;;;;;;22.65;43.60;100741.22;5358766;33;33545;-88
2022/05/27 07:00:49;;;;;;;0.50;0.50;;;;;;;22.83;42.54;100742.88;5356068;33;33650;-89
2022/05/27 07:03:52;;;;;;;0.47;0.47;;;;;;;22.93;42.45;100731.22;5359804;33;33752;-89
2022/05/27 07:06:57;;;;;;;1.08;0.65;;;;;;;23.03;40.63;100739.66;5354768;33;34034;-85
2022/05/27 07:10:00;;;;;;;0.80;0.80;;;;;;;22.95;41.49;100742.81;5360812;33;33470;-84
2022/05/27 07:13:03;;;;;;;0.40;0.40;;;;;;;23.35;41.04;100733.53;5360445;33;33551;-84
2022/05/27 07:16:06;;;;;;;1.12;0.45;;;;;;;23.35;40.18;100736.28;5353037;33;32194;-84
2022/05/27 07:19:11;;;;;;;0.55;0.50;;;;;;;23.35;40.25;100736.28;5362279;33;34744;-84
2022/05/27 07:22:14;;;;;;;0.47;0.47;;;;;;;23.36;39.82;100736.00;5360624;33;34259;-84
2022/05/27 07:25:17;;;;;;;0.85;0.50;;;;;;;23.31;40.38;100734.03;5360570;33;33122;-84
2022/05/27 07:28:20;;;;;;;0.73;0.45;;;;;;;23.30;40.12;100726.03;5361745;33;34361;-84
2022/05/27 07:31:23;;;;;;;1.08;0.60;;;;;;;23.38;40.62;100724.78;5368291;33;33269;-84
2022/05/27 07:34:26;;;;;;;0.40;0.40;;;;;;;23.38;40.27;100727.53;5370069;33;34514;-84
2022/05/27 07:37:30;;;;;;;0.40;0.40;;;;;;;23.27;40.65;100718.31;5365061;33;34340;-84
2022/05/27 07:40:33;;;;;;;1.20;0.75;;;;;;;23.45;40.37;100715.25;5363111;33;34272;-84
2022/05/27 07:43:36;;;;;;;1.65;0.60;;;;;;;23.44;40.85;100718.25;5359406;33;33192;-84
2022/05/27 07:46:40;;;;;;;0.90;0.65;;;;;;;23.54;40.70;100715.63;5359674;33;33360;-84
2022/05/27 07:49:44;;;;;;;0.40;0.40;;;;;;;23.69;40.28;100715.84;5359963;33;33446;-84
2022/05/27 07:52:47;;;;;;;0.68;0.68;;;;;;;23.84;39.90;100715.22;5357879;33;34152;-84
2022/05/27 07:55:49;;;;;;;0.80;0.80;;;;;;;23.61;40.08;100708.03;5354576;33;33201;-84
2022/05/27 07:58:53;;;;;;;0.37;0.37;;;;;;;23.96;39.79;100709.56;5377102;33;32273;-85
2022/05/27 08:01:57;;;;;;;0.57;0.57;;;;;;;24.06;39.74;100706.91;5362247;33;34019;-85
2022/05/27 08:05:00;;;;;;;0.73;0.60;;;;;;;24.20;39.61;100710.91;5358839;33;34577;-85
2022/05/27 08:08:03;;;;;;;1.05;0.80;;;;;;;24.23;38.75;100700.47;5359229;33;34282;-84
2022/05/27 08:11:07;;;;;;;0.50;0.50;;;;;;;24.51;38.81;100702.97;5358847;33;33879;-85
2022/05/27 08:14:09;;;;;;;0.80;0.80;;;;;;;24.69;38.53;100704.47;5358934;33;33145;-85
2022/05/27 08:17:12;;;;;;;1.70;0.88;;;;;;;24.81;38.29;100701.53;5358284;33;33130;-85
2022/05/27 08:20:20;;;;;;;0.62;0.62;;;;;;;24.82;37.77;100698.50;5358445;33;33936;-84
2022/05/27 08:23:24;;;;;;;1.75;0.68;;;;;;;24.92;37.91;100697.72;5358337;33;33905;-85
2022/05/27 08:26:27;;;;;;;0.40;0.40;;;;;;;24.76;38.54;100696.81;5358418;33;34382;-85
2022/05/27 08:29:30;;;;;;;0.45;0.45;;;;;;;24.71;38.69;100701.44;5358673;33;34293;-85
2022/05/27 08:32:32;;;;;;;0.40;0.40;;;;;;;24.92;37.77;100691.41;5357311;33;33668;-84
2022/05/27 08:38:57;;;;;;;1.48;0.82;;;;;;;25.07;37.53;100688.75;5357793;33;33898;-84
2022/05/27 08:42:06;;;;;;;0.88;0.88;;;;;;;24.67;38.44;100685.47;5357495;33;33569;-84
2022/05/27 08:45:21;;;;;;;;;;;;;;;24.61;38.81;100680.19;5359025;33;34365;-84
2022/05/27 08:48:26;;;;;;;0.75;0.73;;;;;;;24.57;39.74;100668.03;5361215;33;33037;-89
2022/05/27 08:51:45;;;;;;;3.20;0.85;;;;;;;25.11;38.68;100667.84;5361316;33;33950;-87
2022/05/27 08:54:50;;;;;;;;;;;;;;;25.21;37.60;100670.66;5361969;33;33986;-85
2022/05/27 09:01:16;;;;;;;5.70;0.80;;;;;;;25.29;37.07;100655.53;5360714;33;32251;-85
2022/05/27 09:04:32;;;;;;;1.48;0.70;;;;;;;25.44;37.10;100654.78;5347273;33;33312;-85
2022/05/27 09:07:56;;;;;;;1.27;0.60;;;;;;;25.20;37.66;100651.66;5361167;33;33862;-85
2022/05/27 09:11:22;;;;;;;0.40;0.40;;;;;;;25.26;37.18;100648.62;5368975;33;33072;-84
2022/05/27 09:14:31;;;;;;;0.62;0.62;;;;;;;25.56;37.40;100645.19;5364047;33;33445;-85
2022/05/27 09:17:37;;;;;;;;;;;;;;;26.05;36.83;100643.91;5361458;33;33500;-85
2022/05/27 09:20:54;;;;;;;0.68;0.60;;;;;;;25.95;35.89;100632.88;5361116;33;33550;-85
2022/05/27 09:24:34;;;;;;;0.90;0.90;;;;;;;25.84;36.56;100639.50;5361126;33;32985;-85
2022/05/27 09:28:21;;;;;;;0.57;0.57;;;;;;;26.24;35.95;100631.25;5360833;33;33324;-85
2022/05/27 09:31:42;;;;;;;2.42;1.00;;;;;;;26.18;35.95;100628.75;5343283;33;33151;-85
2022/05/27 09:34:47;;;;;;;0.60;0.60;;;;;;;26.51;35.63;100632.09;5361271;33;33942;-84
2022/05/27 09:37:53;;;;;;;0.57;0.57;;;;;;;26.72;35.59;100619.91;5361322;33;34345;-85
2022/05/27 09:41:12;;;;;;;2.03;0.70;;;;;;;26.57;35.13;100615.22;5361227;33;34257;-85
2022/05/27 09:44:40;;;;;;;0.33;0.33;;;;;;;26.56;34.99;100607.22;5361320;33;33541;-85
2022/05/27 09:47:43;;;;;;;0.68;0.68;;;;;;;26.24;35.74;100600.06;5360990;33;33530;-85
2022/05/27 09:50:47;;;;;;;0.80;0.60;;;;;;;26.49;35.60;100607.47;5361017;33;34311;-84
2022/05/27 09:54:24;;;;;;;0.65;0.60;;;;;;;26.48;35.06;100602.25;5368163;33;33498;-85
2022/05/27 09:57:30;;;;;;;0.73;0.60;;;;;;;26.83;35.07;100598.59;5379645;33;34334;-85
2022/05/27 10:00:40;;;;;;;0.80;0.80;;;;;;;27.21;34.89;100588.00;5357845;33;33262;-85
2022/05/27 10:03:46;;;;;;;0.60;0.60;;;;;;;27.36;33.78;100596.19;5371120;33;32786;-85
2022/05/27 10:06:49;;;;;;;0.30;0.30;;;;;;;27.09;34.24;100600.16;5373880;33;33643;-85
2022/05/27 10:09:52;;;;;;;0.55;0.55;;;;;;;27.06;34.36;100586.09;5387201;33;33588;-85
2022/05/27 10:13:16;;;;;;;0.60;0.60;;;;;;;27.40;34.51;100577.91;5396212;33;33737;-85
2022/05/27 10:16:25;;;;;;;0.60;0.60;;;;;;;27.40;34.21;100582.63;5367607;33;33398;-85
2022/05/27 10:19:28;;;;;;;0.47;0.47;;;;;;;27.34;34.86;100568.81;5365515;33;33807;-85
2022/05/27 10:22:31;;;;;;;0.50;0.37;;;;;;;27.92;33.67;100573.72;5366427;33;33164;-85
2022/05/27 10:25:43;;;;;;;0.50;0.50;;;;;;;27.58;33.73;100557.06;5367193;33;33084;-84
2022/05/27 10:29:06;;;;;;;0.50;0.50;;;;;;;27.36;33.62;100557.50;5369936;33;33215;-84
2022/05/27 10:32:08;;;;;;;0.77;0.75;;;;;;;27.22;34.48;100557.28;5352249;33;31977;-85
2022/05/27 10:35:21;;;;;;;1.27;0.75;;;;;;;27.41;33.63;100560.22;5367118;33;33650;-84
2022/05/27 10:38:29;;;;;;;1.20;0.60;;;;;;;28.02;32.19;100548.75;5363597;33;34713;-84
2022/05/27 10:42:19;;;;;;;0.62;0.62;;;;;;;27.53;32.75;100537.75;5363203;33;33385;-85
2022/05/27 10:45:37;;;;;;;2.15;0.57;;;;;;;28.18;32.85;100530.03;5357329;33;33463;-85
2022/05/27 10:49:11;;;;;;;0.35;0.35;;;;;;;28.15;32.36;100518.72;5359315;33;33869;-85
2022/05/27 10:52:29;;;;;;;0.70;0.70;;;;;;;28.61;32.01;100521.87;5366433;33;33974;-85
2022/05/27 10:55:32;;;;;;;0.50;0.50;;;;;;;28.79;31.12;100513.91;5367095;33;33958;-84
2022/05/27 11:02:53;;;;;;;1.35;0.80;;;;;;;29.83;29.35;100497.13;5342328;33;33458;-84
2022/05/27 11:06:14;;;;;;;0.40;0.40;;;;;;;30.15;28.87;100494.63;5342244;33;34059;-90
2022/05/27 11:09:26;;;;;;;0.65;0.50;;;;;;;30.54;29.18;100485.00;5341101;33;33098;-85
2022/05/27 11:16:42;;;;;;;1.35;0.60;;;;;;;30.47;28.41;100480.69;5342023;33;34346;-85
2022/05/27 11:20:24;;;;;;;1.00;0.70;;;;;;;29.86;30.53;100481.00;5342356;33;33890;-84
2022/05/27 11:23:55;;;;;;;0.55;0.55;;;;;;;30.14;29.51;100474.37;5343086;33;33213;-84
2022/05/27 11:27:26;;;;;;;0.75;0.52;;;;;;;32.11;26.68;100462.16;5329126;33;32529;-85
2022/05/27 11:30:58;;;;;;;1.10;0.70;;;;;;;32.03;26.61;100449.84;5342144;33;33875;-85
2022/05/27 11:34:16;;;;;;;2.40;0.70;;;;;;;32.13;26.77;100449.56;5328970;33;31926;-84
2022/05/27 11:37:58;;;;;;;0.70;0.70;;;;;;;33.03;25.91;100446.41;5347098;33;34963;-85
2022/05/27 11:41:13;;;;;;;1.15;0.60;;;;;;;33.69;24.61;100421.06;5289093;33;33342;-85
2022/05/27 11:44:25;;;;;;;0.45;0.45;;;;;;;34.66;23.93;100425.97;5348831;33;33535;-84
2022/05/27 11:47:50;;;;;;;0.40;0.40;;;;;;;35.43;23.07;100426.50;5359198;33;33877;-85
2022/05/27 11:51:24;;;;;;;0.47;0.47;;;;;;;33.98;24.50;100425.09;5359837;33;33269;-86
2022/05/27 11:54:58;;;;;;;1.90;0.70;;;;;;;33.42;25.25;100416.69;5359613;33;33531;-85
2022/05/27 11:58:21;;;;;;;0.70;0.70;;;;;;;32.51;26.50;100407.28;5367474;33;34221;-85
2022/05/27 12:01:49;;;;;;;0.52;0.50;;;;;;;32.91;26.23;100402.41;5373220;33;34760;-85
2022/05/27 12:05:08;;;;;;;0.52;0.52;;;;;;;34.03;24.81;100399.78;5362272;33;33102;-84
2022/05/27 12:08:22;;;;;;;0.65;0.60;;;;;;;34.33;26.14;100394.22;5359467;33;33550;-84
2022/05/27 12:11:40;;;;;;;0.52;0.52;;;;;;;34.91;23.85;100387.75;5345976;33;32169;-84
2022/05/27 12:14:53;;;;;;;0.62;0.60;;;;;;;34.97;24.43;100380.78;5345757;33;33035;-89
2022/05/27 12:17:57;;;;;;;1.50;0.60;;;;;;;34.79;23.78;100368.12;5359794;33;33387;-85
2022/05/27 12:21:05;;;;;;;0.47;0.47;;;;;;;34.06;25.43;100374.00;5360825;33;34328;-85
2022/05/27 12:24:29;;;;;;;0.90;0.50;;;;;;;33.96;24.75;100364.00;5362228;33;33279;-85
2022/05/27 12:27:34;;;;;;;1.15;1.00;;;;;;;36.61;22.15;100361.63;5361699;33;33505;-85
2022/05/27 12:30:41;;;;;;;0.68;0.68;;;;;;;35.23;23.24;100359.37;5362609;33;33038;-85
2022/05/27 12:33:44;;;;;;;1.02;0.93;;;;;;;34.47;24.22;100356.47;5361883;33;33270;-85
2022/05/27 12:36:47;;;;;;;1.37;0.70;;;;;;;32.98;26.04;100348.91;5361698;33;33413;-85
2022/05/27 12:39:52;;;;;;;0.70;0.70;;;;;;;32.06;27.56;100333.06;5361835;33;34834;-85
2022/05/27 12:43:00;;;;;;;0.80;0.70;;;;;;;34.00;25.78;100339.81;5362210;33;33489;-85
2022/05/27 12:46:03;;;;;;;0.60;0.60;;;;;;;36.05;22.75;100331.41;5361808;33;33811;-85
2022/05/27 12:49:33;;;;;;;1.48;0.60;;;;;;;34.70;24.00;100320.62;5361728;33;33428;-85
2022/05/27 12:52:36;;;;;;;0.62;0.62;;;;;;;33.71;25.11;100318.25;5361848;33;33911;-85
2022/05/27 13:00:55;;;;;;;0.80;0.80;;;;;;;32.82;26.67;100311.50;5361461;33;33283;-84
2022/05/27 13:02:48;;;;;;;0.80;0.80;;;;;;;35.21;23.89;100314.91;5361421;33;35870;-85
2022/05/27 13:06:14;;;;;;;1.15;0.70;;;;;;;36.74;22.20;100302.31;5335615;33;210600;-85
2022/05/27 13:09:46;;;;;;;0.60;0.60;;;;;;;37.11;21.56;100285.31;5343063;33;33832;-85
2022/05/27 13:12:56;;;;;;;0.65;0.65;;;;;;;38.62;19.77;100287.00;5325681;33;32998;-85
2022/05/27 13:16:07;;;;;;;0.60;0.50;;;;;;;38.28;20.32;100283.00;5342306;33;33222;-85
2022/05/27 13:19:50;;;;;;;4.40;0.55;;;;;;;35.56;22.97;100275.34;5343281;33;33966;-85
2022/05/27 13:23:10;;;;;;;0.93;0.93;;;;;;;35.36;24.48;100275.03;5342351;33;33101;-85
2022/05/27 13:26:19;;;;;;;0.60;0.55;;;;;;;37.64;21.30;100257.00;5339979;33;32304;-85
2022/05/27 13:29:28;;;;;;;0.70;0.70;;;;;;;39.74;19.13;100248.47;5342307;33;33411;-89
2022/05/27 13:32:36;;;;;;;0.40;0.40;;;;;;;40.74;18.10;100243.38;5336060;33;34078;-86
2022/05/27 13:35:46;;;;;;;0.60;0.60;;;;;;;40.71;17.96;100246.97;5344716;33;34023;-85
2022/05/27 13:38:59;;;;;;;3.35;0.50;;;;;;;40.17;18.74;100237.81;5346206;33;33397;-86
2022/05/27 13:42:03;;;;;;;0.70;0.70;;;;;;;41.40;17.62;100235.97;5343243;33;33219;-85
2022/05/27 13:45:15;;;;;;;0.65;0.65;;;;;;;39.73;19.03;100229.91;5343302;33;34046;-85
2022/05/27 13:48:32;;;;;;;0.50;0.50;;;;;;;39.75;18.82;100224.72;5342854;33;33175;-85
2022/05/27 13:51:41;;;;;;;1.40;0.52;;;;;;;38.95;19.51;100216.09;5342096;33;33247;-85
2022/05/27 13:54:45;;;;;;;1.15;0.65;;;;;;;35.63;22.69;100216.78;5339573;33;34038;-85
2022/05/27 13:57:47;;;;;;;0.57;0.57;;;;;;;33.53;25.49;100217.00;5342686;33;33407;-85
2022/05/27 14:00:52;;;;;;;0.80;0.73;;;;;;;34.44;24.88;100203.41;5343174;33;33292;-85
2022/05/27 14:04:09;;;;;;;1.25;1.00;;;;;;;33.72;25.72;100196.19;5341878;33;33610;-85
2022/05/27 14:07:30;;;;;;;0.93;0.90;;;;;;;32.67;26.87;100191.00;5352098;33;34425;-85
2022/05/27 14:10:36;;;;;;;1.10;1.00;;;;;;;32.02;27.89;100181.66;5342432;33;32495;-84
2022/05/27 14:13:39;;;;;;;1.48;0.77;;;;;;;31.73;28.21;100182.25;5356131;33;34370;-84
2022/05/27 14:16:43;;;;;;;0.75;0.75;;;;;;;31.48;29.07;100183.00;5353195;33;33733;-84
2022/05/27 14:19:57;;;;;;;0.88;0.80;;;;;;;31.46;28.71;100176.94;5361042;33;33472;-84
2022/05/27 14:23:12;;;;;;;0.82;0.80;;;;;;;30.95;29.68;100181.97;5350848;33;33551;-84
2022/05/27 14:26:15;;;;;;;0.80;0.80;;;;;;;30.48;30.75;100175.91;5368112;33;33814;-85
2022/05/27 14:29:21;;;;;;;0.90;0.90;;;;;;;29.86;31.51;100172.91;5361022;33;34694;-84
2022/05/27 14:32:24;;;;;;;1.83;1.10;;;;;;;29.28;32.24;100163.28;5361066;33;34261;-85
2022/05/27 14:35:32;;;;;;;0.88;0.88;;;;;;;29.52;32.41;100163.88;5360455;33;33191;-84
2022/05/27 14:38:38;;;;;;;1.12;1.02;;;;;;;29.70;31.97;100166.88;5361223;33;34158;-85
2022/05/27 14:41:43;;;;;;;1.05;0.98;;;;;;;29.66;32.73;100161.12;5347434;33;32766;-84
2022/05/27 14:44:49;;;;;;;1.85;0.90;;;;;;;29.31;32.75;100155.19;5348738;33;33734;-85
2022/05/27 14:47:52;;;;;;;1.02;1.02;;;;;;;29.67;32.37;100145.31;5359300;33;32296;-85
2022/05/27 14:50:55;;;;;;;0.93;0.93;;;;;;;29.66;32.52;100133.38;5361215;33;33509;-85
2022/05/27 14:54:30;;;;;;;0.70;0.70;;;;;;;29.41;32.91;100134.72;5360611;33;33739;-85
2022/05/27 14:57:34;;;;;;;2.25;0.80;;;;;;;29.14;33.33;100132.78;5346937;33;31817;-85
2022/05/27 15:00:46;;;;;;;2.15;0.93;;;;;;;29.07;33.83;100124.84;5358927;33;33629;-85
2022/05/27 15:04:08;;;;;;;0.82;0.82;;;;;;;29.12;33.14;100123.94;5361775;33;35061;-85
2022/05/27 15:07:21;;;;;;;0.60;0.60;;;;;;;28.88;33.95;100121.34;5362364;33;33660;-85
2022/05/27 15:10:34;;;;;;;0.77;0.77;;;;;;;28.81;33.84;100120.91;5343618;33;34156;-84
2022/05/27 15:13:58;;;;;;;2.03;1.25;;;;;;;28.77;33.98;100117.12;5356946;33;33345;-84
2022/05/27 15:17:05;;;;;;;1.05;0.90;;;;;;;28.55;34.15;100107.56;5361610;33;33235;-90
2022/05/27 15:20:17;;;;;;;0.85;0.85;;;;;;;28.31;34.92;100110.41;5360835;33;33077;-85
2022/05/27 15:23:31;;;;;;;0.70;0.70;;;;;;;28.23;34.63;100098.09;5361279;33;34592;-85
2022/05/27 15:33:47;;;;;;;3.35;0.82;;;;;;;27.98;35.00;100092.97;5371563;33;33666;-85
2022/05/27 15:36:50;;;;;;;1.33;1.12;;;;;;;27.97;34.96;100092.16;5370126;33;34511;-84
2022/05/27 15:39:56;;;;;;;0.98;0.85;;;;;;;27.91;35.32;100093.34;5347446;33;32896;-84
2022/05/27 15:42:59;;;;;;;1.35;0.90;;;;;;;27.67;36.30;100090.66;5360455;33;33820;-85
2022/05/27 15:46:04;;;;;;;1.80;1.20;;;;;;;27.55;36.64;100068.13;5360603;33;33336;-85
2022/05/27 15:49:07;;;;;;;1.30;1.20;;;;;;;27.44;36.97;100081.28;5360460;33;34600;-85
2022/05/27 15:52:10;;;;;;;2.20;0.90;;;;;;;27.28;37.36;100074.31;5360111;33;33141;-85
2022/05/27 15:55:15;;;;;;;1.02;1.02;;;;;;;27.13;37.71;100069.78;5360695;33;33413;-85
2022/05/27 15:58:19;;;;;;;0.90;0.90;;;;;;;27.01;38.38;100056.38;5362015;33;33414;-84
